createdAt,value
2023-02-16T00:02:11.997Z,67.50
2023-02-16T00:05:26.190Z,65.00
2023-02-16T00:08:29.537Z,66.00
2023-02-16T00:11:52.701Z,69.25
2023-02-16T00:14:56.030Z,67.40
2023-02-16T00:18:00.995Z,67.75
2023-02-16T00:21:06.095Z,65.80
2023-02-16T00:24:09.410Z,64.40
2023-02-16T00:27:18.535Z,69.00
2023-02-16T00:30:23.810Z,71.00
2023-02-16T00:33:27.285Z,70.00
2023-02-16T00:36:31.965Z,72.00
2023-02-16T00:39:35.799Z,73.25
2023-02-16T00:42:39.269Z,76.00
2023-02-16T00:45:45.433Z,73.00
2023-02-16T00:48:48.665Z,72.75
2023-02-16T00:51:54.036Z,72.00
2023-02-16T00:54:57.338Z,75.00
2023-02-16T00:58:07.372Z,89.00
2023-02-16T01:01:15.991Z,70.75
2023-02-16T01:04:22.864Z,66.60
2023-02-16T01:07:57.094Z,61.80
2023-02-16T01:11:10.281Z,66.20
2023-02-16T01:14:16.680Z,61.80
2023-02-16T01:17:20.134Z,60.50
2023-02-16T01:20:25.278Z,60.25
2023-02-16T01:23:29.945Z,61.00
2023-02-16T01:26:35.393Z,60.60
2023-02-16T01:29:38.770Z,59.00
2023-02-16T01:32:42.266Z,55.00
2023-02-16T01:35:46.138Z,58.25
2023-02-16T01:38:51.366Z,55.75
2023-02-16T01:42:10.927Z,55.20
2023-02-16T01:45:19.663Z,52.00
2023-02-16T01:48:27.264Z,53.25
2023-02-16T01:51:36.888Z,53.00
2023-02-16T01:54:46.206Z,53.40
2023-02-16T01:57:52.535Z,58.50
2023-02-16T02:01:37.046Z,55.20
2023-02-16T02:05:01.445Z,54.00
2023-02-16T02:08:12.685Z,58.00
2023-02-16T02:11:23.045Z,61.00
2023-02-16T02:14:36.765Z,59.60
2023-02-16T02:17:40.308Z,60.00
2023-02-16T02:21:15.559Z,65.00
2023-02-16T02:24:49.896Z,63.50
2023-02-16T02:28:03.216Z,64.50
2023-02-16T02:31:11.899Z,71.40
2023-02-16T02:34:29.823Z,69.80
2023-02-16T02:37:45.719Z,68.20
2023-02-16T02:41:00.268Z,65.40
2023-02-16T02:44:10.688Z,61.20
2023-02-16T02:47:14.080Z,57.25
2023-02-16T02:50:39.042Z,53.50
2023-02-16T02:53:48.553Z,55.00
2023-02-16T02:57:17.278Z,58.75
2023-02-16T03:00:44.329Z,58.80
2023-02-16T03:03:52.609Z,57.00
2023-02-16T03:07:00.210Z,54.00
2023-02-16T03:10:23.470Z,53.75
2023-02-16T03:13:30.463Z,55.80
2023-02-16T03:16:38.783Z,59.00
2023-02-16T03:20:02.336Z,54.60
2023-02-16T03:23:26.646Z,58.25
2023-02-16T03:26:49.425Z,56.25
2023-02-16T03:29:54.233Z,60.75
2023-02-16T03:32:58.946Z,58.20
2023-02-16T03:36:03.536Z,64.80
2023-02-16T03:39:08.386Z,57.25
2023-02-16T03:42:11.608Z,53.40
2023-02-16T03:45:14.932Z,54.75
2023-02-16T03:48:19.784Z,54.40
2023-02-16T03:51:23.287Z,52.20
2023-02-16T03:54:26.550Z,51.20
2023-02-16T03:57:29.801Z,51.80
2023-02-16T04:00:33.429Z,50.00
2023-02-16T04:03:38.189Z,51.00
2023-02-16T04:06:42.166Z,48.40
2023-02-16T04:09:45.785Z,49.40
2023-02-16T04:12:49.367Z,46.80
2023-02-16T04:15:52.737Z,49.80
2023-02-16T04:18:57.520Z,50.00
2023-02-16T04:22:00.799Z,46.20
2023-02-16T04:25:04.218Z,48.80
2023-02-16T04:28:07.588Z,50.00
2023-02-16T04:31:10.897Z,49.00
2023-02-16T04:34:15.625Z,49.20
2023-02-16T04:37:18.977Z,47.40
2023-02-16T04:40:22.674Z,46.40
2023-02-16T04:43:25.938Z,48.80
2023-02-16T04:46:29.181Z,47.75
2023-02-16T04:49:33.905Z,48.00
2023-02-16T04:52:37.676Z,49.00
2023-02-16T04:55:41.007Z,47.60
2023-02-16T04:58:44.481Z,47.20
2023-02-16T05:01:47.778Z,46.00
2023-02-16T05:04:52.578Z,46.00
2023-02-16T05:07:55.986Z,45.80
2023-02-16T05:11:16.450Z,46.25
2023-02-16T05:14:38.831Z,48.00
2023-02-16T05:17:42.110Z,45.80
2023-02-16T05:21:03.629Z,46.00
2023-02-16T05:24:09.006Z,46.00
2023-02-16T05:27:14.630Z,44.20
2023-02-16T05:30:18.170Z,46.00
2023-02-16T05:33:21.419Z,44.00
2023-02-16T05:36:26.216Z,44.00
2023-02-16T05:39:29.581Z,45.00
2023-02-16T05:42:33.013Z,44.00
2023-02-16T05:45:36.405Z,43.60
2023-02-16T05:48:39.660Z,44.75
2023-02-16T05:51:44.619Z,43.80
2023-02-16T05:54:47.998Z,44.00
2023-02-16T05:57:51.306Z,43.20
2023-02-16T06:00:54.654Z,42.20
2023-02-16T06:03:58.003Z,43.20
2023-02-16T06:07:02.886Z,42.00
2023-02-16T06:10:07.084Z,44.00
2023-02-16T06:13:10.287Z,41.00
2023-02-16T06:16:14.092Z,41.40
2023-02-16T06:19:18.890Z,43.00
2023-02-16T06:22:23.949Z,44.00
2023-02-16T06:25:27.140Z,42.00
2023-02-16T06:28:30.437Z,42.75
2023-02-16T06:31:36.266Z,42.50
2023-02-16T06:34:40.535Z,41.40
2023-02-16T06:37:45.293Z,41.00
2023-02-16T06:40:48.515Z,43.00
2023-02-16T06:43:51.982Z,41.60
2023-02-16T06:46:55.478Z,42.60
2023-02-16T06:49:58.770Z,44.60
2023-02-16T06:53:03.533Z,43.00
2023-02-16T06:56:07.936Z,41.00
2023-02-16T06:59:13.041Z,40.75
2023-02-16T07:02:17.287Z,42.50
2023-02-16T07:05:20.502Z,40.25
2023-02-16T07:08:25.221Z,41.50
2023-02-16T07:11:28.607Z,41.00
2023-02-16T07:14:32.279Z,42.00
2023-02-16T07:17:35.461Z,42.00
2023-02-16T07:20:39.037Z,43.80
2023-02-16T07:23:44.348Z,41.60
2023-02-16T07:26:47.713Z,45.00
2023-02-16T07:29:51.126Z,43.00
2023-02-16T07:32:54.333Z,44.75
2023-02-16T07:35:57.542Z,43.00
2023-02-16T07:39:02.330Z,43.60
2023-02-16T07:42:05.831Z,42.00
2023-02-16T07:45:11.234Z,41.00
2023-02-16T07:48:14.796Z,43.75
2023-02-16T07:51:22.649Z,43.00
2023-02-16T07:54:27.289Z,40.60
2023-02-16T07:57:30.897Z,43.40
2023-02-16T08:00:34.272Z,41.00
2023-02-16T08:03:37.620Z,41.00
2023-02-16T08:06:40.954Z,39.50
2023-02-16T08:09:45.873Z,40.00
2023-02-16T08:12:49.916Z,40.00
2023-02-16T08:15:53.497Z,40.20
2023-02-16T08:18:58.434Z,39.40
2023-02-16T08:22:03.329Z,40.25
2023-02-16T08:25:08.767Z,41.00
2023-02-16T08:28:15.143Z,41.00
2023-02-16T08:31:20.772Z,39.60
2023-02-16T08:34:25.203Z,40.00
2023-02-16T08:37:28.753Z,40.00
2023-02-16T08:40:38.811Z,39.20
2023-02-16T08:43:42.155Z,39.00
2023-02-16T08:46:47.731Z,39.25
2023-02-16T08:49:51.334Z,39.80
2023-02-16T08:52:54.785Z,41.00
2023-02-16T08:56:00.624Z,39.00
2023-02-16T08:59:04.013Z,38.00
2023-02-16T09:02:08.173Z,41.40
2023-02-16T09:05:11.514Z,40.00
2023-02-16T09:08:15.913Z,39.00
2023-02-16T09:11:21.527Z,38.00
2023-02-16T09:14:25.488Z,38.00
2023-02-16T09:17:30.210Z,37.60
2023-02-16T09:20:33.542Z,36.60
2023-02-16T09:23:36.872Z,38.40
2023-02-16T09:26:43.044Z,38.67
2023-02-16T09:29:46.419Z,40.00
2023-02-16T09:32:49.630Z,38.80
2023-02-16T09:35:53.169Z,38.00
2023-02-16T09:38:57.738Z,38.25
2023-02-16T09:42:24.532Z,36.80
2023-02-16T09:45:29.859Z,35.50
2023-02-16T09:48:37.180Z,36.40
2023-02-16T09:51:42.040Z,35.00
2023-02-16T09:54:50.505Z,35.80
2023-02-16T09:58:05.257Z,31.60
2023-02-16T10:01:18.507Z,32.60
2023-02-16T10:04:39.078Z,33.80
2023-02-16T10:07:51.968Z,34.80
2023-02-16T10:11:04.098Z,35.00
2023-02-16T10:14:19.097Z,35.00
2023-02-16T10:17:30.867Z,35.80
2023-02-16T10:20:38.572Z,35.20
2023-02-16T10:23:47.852Z,38.00
2023-02-16T10:27:02.385Z,37.00
2023-02-16T10:30:15.349Z,36.50
2023-02-16T10:33:26.604Z,36.00
2023-02-16T10:36:45.570Z,35.00
2023-02-16T10:39:55.714Z,35.00
2023-02-16T10:43:07.309Z,33.00
2023-02-16T10:46:18.410Z,34.75
2023-02-16T10:49:23.566Z,32.60
2023-02-16T10:52:29.406Z,33.40
2023-02-16T10:55:33.171Z,32.00
2023-02-16T10:58:41.517Z,30.00
2023-02-16T11:01:49.684Z,30.00
2023-02-16T11:04:54.682Z,32.00
2023-02-16T11:08:01.705Z,30.00
2023-02-16T11:11:11.233Z,30.00
2023-02-16T11:14:23.146Z,29.00
2023-02-16T11:17:28.575Z,31.80
2023-02-16T11:20:33.836Z,32.00
2023-02-16T11:23:38.806Z,30.00
2023-02-16T11:26:42.109Z,32.00
2023-02-16T11:29:45.733Z,32.00
2023-02-16T11:32:51.781Z,32.00
2023-02-16T11:35:56.470Z,33.00
2023-02-16T11:39:03.596Z,32.00
2023-02-16T11:42:11.074Z,31.40
2023-02-16T11:45:26.891Z,30.40
2023-02-16T11:48:33.768Z,31.60
2023-02-16T11:51:37.489Z,32.40
2023-02-16T11:54:50.237Z,30.00
2023-02-16T11:57:54.094Z,32.40
2023-02-16T12:01:09.795Z,28.00
2023-02-16T12:04:26.006Z,34.75
2023-02-16T12:07:38.148Z,34.50
2023-02-16T12:11:02.815Z,31.80
2023-02-16T12:14:21.078Z,31.60
2023-02-16T12:17:36.134Z,32.20
2023-02-16T12:20:50.485Z,35.00
2023-02-16T12:24:00.114Z,32.00
2023-02-16T12:27:05.704Z,34.20
2023-02-16T12:30:25.569Z,32.20
2023-02-16T12:33:43.651Z,33.00
2023-02-16T12:36:59.470Z,35.00
2023-02-16T12:40:12.721Z,32.00
2023-02-16T12:43:32.708Z,33.00
2023-02-16T12:46:40.836Z,31.80
2023-02-16T12:49:52.764Z,32.25
2023-02-16T12:53:03.063Z,32.60
2023-02-16T12:56:14.605Z,31.00
2023-02-16T12:59:23.888Z,33.00
2023-02-16T13:02:33.465Z,32.00
2023-02-16T13:05:38.975Z,30.20
2023-02-16T13:08:48.934Z,35.00
2023-02-16T13:11:57.337Z,32.20
2023-02-16T13:15:08.146Z,31.20
2023-02-16T13:18:22.125Z,30.00
2023-02-16T13:22:03.953Z,28.50
2023-02-16T13:25:36.082Z,28.20
2023-02-16T13:28:58.691Z,30.00
2023-02-16T13:32:25.965Z,31.40
2023-02-16T13:35:53.173Z,32.00
2023-02-16T13:39:13.889Z,30.40
2023-02-16T13:42:40.560Z,26.20
2023-02-16T13:45:47.328Z,28.50
2023-02-16T13:48:53.662Z,25.80
2023-02-16T13:51:57.067Z,26.60
2023-02-16T13:55:03.070Z,29.00
2023-02-16T13:58:28.237Z,26.00
2023-02-16T14:01:43.310Z,27.00
2023-02-16T14:05:11.071Z,29.60
2023-02-16T14:08:20.782Z,26.00
2023-02-16T14:11:24.240Z,26.00
2023-02-16T14:14:35.906Z,25.50
2023-02-16T14:17:39.252Z,26.40
2023-02-16T14:20:42.705Z,24.40
2023-02-16T14:23:46.388Z,26.00
2023-02-16T14:26:55.638Z,26.00
2023-02-16T14:30:03.333Z,23.60
2023-02-16T14:33:22.636Z,25.00
2023-02-16T14:36:27.210Z,25.00
2023-02-16T14:39:30.960Z,26.40
2023-02-16T14:42:36.976Z,24.80
2023-02-16T14:46:03.708Z,25.00
2023-02-16T14:49:45.281Z,26.00
2023-02-16T14:53:18.713Z,27.00
2023-02-16T14:56:43.179Z,27.00
2023-02-16T14:59:52.552Z,26.25
2023-02-16T15:02:59.679Z,29.60
2023-02-16T15:06:06.302Z,25.80
2023-02-16T15:09:17.182Z,26.00
2023-02-16T15:12:32.779Z,26.60
2023-02-16T15:15:44.983Z,26.00
2023-02-16T15:18:53.001Z,24.00
2023-02-16T15:22:17.553Z,28.00
2023-02-16T15:25:25.668Z,27.40
2023-02-16T15:28:31.423Z,28.00
2023-02-16T15:31:37.371Z,29.00
2023-02-16T15:34:42.362Z,30.00
2023-02-16T15:37:45.663Z,26.75
2023-02-16T15:40:53.214Z,27.40
2023-02-16T15:43:57.302Z,26.00
2023-02-16T15:47:08.815Z,28.60
2023-02-16T15:50:15.494Z,25.80
2023-02-16T15:53:26.475Z,31.33
2023-02-16T15:56:35.986Z,28.00
2023-02-16T15:59:42.148Z,24.50
2023-02-16T16:02:49.294Z,29.25
2023-02-16T16:06:01.544Z,30.00
2023-02-16T16:09:08.664Z,27.00
2023-02-16T16:12:15.213Z,28.40
2023-02-16T16:15:22.953Z,29.80
2023-02-16T16:18:39.319Z,32.60
2023-02-16T16:21:51.530Z,30.00
2023-02-16T16:24:54.776Z,32.00
2023-02-16T16:27:58.204Z,33.00
2023-02-16T16:31:08.934Z,32.40
2023-02-16T16:34:32.554Z,33.00
2023-02-16T16:37:38.224Z,33.00
2023-02-16T16:40:41.620Z,32.60
2023-02-16T16:43:55.064Z,32.00
2023-02-16T16:46:58.441Z,35.00
2023-02-16T16:50:06.356Z,34.40
2023-02-16T16:53:41.942Z,35.00
2023-02-16T16:56:46.758Z,38.25
2023-02-16T16:59:49.983Z,35.80
2023-02-16T17:02:53.742Z,37.00
2023-02-16T17:05:57.804Z,38.67
2023-02-16T17:09:02.373Z,39.67
2023-02-16T17:12:07.771Z,39.00
2023-02-16T17:15:28.597Z,40.00
2023-02-16T17:18:32.200Z,36.00
2023-02-16T17:21:35.511Z,39.00
2023-02-16T17:24:38.891Z,42.40
2023-02-16T17:27:43.636Z,41.20
2023-02-16T17:30:46.974Z,39.00
2023-02-16T17:33:50.229Z,40.75
2023-02-16T17:36:53.806Z,42.80
2023-02-16T17:39:57.175Z,40.40
2023-02-16T17:43:01.942Z,39.80
2023-02-16T17:46:06.636Z,42.00
2023-02-16T17:49:12.741Z,42.00
2023-02-16T17:52:15.972Z,40.00
2023-02-16T17:55:19.264Z,44.00
2023-02-16T17:58:25.300Z,42.00
2023-02-16T18:01:28.892Z,43.50
2023-02-16T18:04:32.218Z,43.60
2023-02-16T18:07:35.602Z,40.60
2023-02-16T18:10:42.396Z,39.20
2023-02-16T18:13:47.174Z,39.00
2023-02-16T18:16:53.465Z,39.00
2023-02-16T18:19:56.937Z,40.50
2023-02-16T18:23:00.508Z,40.00
2023-02-16T18:26:04.199Z,40.00
2023-02-16T18:29:09.998Z,39.00
2023-02-16T18:32:13.578Z,38.00
2023-02-16T18:35:17.697Z,38.80
2023-02-16T18:38:22.526Z,41.20
2023-02-16T18:41:25.819Z,42.20
2023-02-16T18:44:30.534Z,39.00
2023-02-16T18:47:33.842Z,43.00
2023-02-16T18:50:37.171Z,39.00
2023-02-16T18:53:40.813Z,40.00
2023-02-16T18:56:44.151Z,41.40
2023-02-16T18:59:48.890Z,41.40
2023-02-16T19:02:54.383Z,38.60
2023-02-16T19:05:57.673Z,39.40
2023-02-16T19:09:01.043Z,41.75
2023-02-16T19:12:04.735Z,41.25
2023-02-16T19:15:10.345Z,40.40
2023-02-16T19:18:13.718Z,38.00
2023-02-16T19:21:17.032Z,41.00
2023-02-16T19:24:20.258Z,39.00
2023-02-16T19:27:23.540Z,41.00
2023-02-16T19:30:28.177Z,40.00
2023-02-16T19:33:32.166Z,41.40
2023-02-16T19:36:35.741Z,40.25
2023-02-16T19:39:39.252Z,40.60
2023-02-16T19:42:42.627Z,40.00
2023-02-16T19:45:47.223Z,44.00
2023-02-16T19:48:51.018Z,41.00
2023-02-16T19:51:55.678Z,41.40
2023-02-16T19:54:59.014Z,40.00
2023-02-16T19:58:03.595Z,39.00
2023-02-16T20:01:09.634Z,43.00
2023-02-16T20:04:13.094Z,40.80
2023-02-16T20:07:16.483Z,41.25
2023-02-16T20:10:19.947Z,41.00
2023-02-16T20:13:25.622Z,41.40
2023-02-16T20:16:30.629Z,43.40
2023-02-16T20:19:33.903Z,42.00
2023-02-16T20:22:37.216Z,43.00
2023-02-16T20:25:41.599Z,43.40
2023-02-16T20:28:44.849Z,40.00
2023-02-16T20:31:52.705Z,44.00
2023-02-16T20:34:56.198Z,44.00
2023-02-16T20:38:00.002Z,44.00
2023-02-16T20:41:03.692Z,43.00
2023-02-16T20:44:07.099Z,44.00
2023-02-16T20:47:11.748Z,45.00
2023-02-16T20:50:15.473Z,44.00
2023-02-16T20:53:19.147Z,43.60
2023-02-16T20:56:24.278Z,45.00
2023-02-16T20:59:27.647Z,45.25
2023-02-16T21:02:32.294Z,44.20
2023-02-16T21:05:35.564Z,45.50
2023-02-16T21:08:39.026Z,46.00
2023-02-16T21:11:44.119Z,48.60
2023-02-16T21:14:47.339Z,47.40
2023-02-16T21:17:52.117Z,46.00
2023-02-16T21:20:55.484Z,45.33
2023-02-16T21:23:58.979Z,47.33
2023-02-16T21:27:02.418Z,44.00
2023-02-16T21:30:07.399Z,46.00
2023-02-16T21:33:12.195Z,47.00
2023-02-16T21:36:17.568Z,47.00
2023-02-16T21:39:41.132Z,44.20
2023-02-16T21:42:43.599Z,46.60
2023-02-16T21:45:48.336Z,46.00
2023-02-16T21:48:53.389Z,45.40
2023-02-16T21:51:56.650Z,45.50
2023-02-16T21:55:17.450Z,43.80
2023-02-16T21:58:21.568Z,46.40
2023-02-16T22:01:26.710Z,44.00
2023-02-16T22:04:31.368Z,47.00
2023-02-16T22:07:34.855Z,44.40
2023-02-16T22:10:38.254Z,44.80
2023-02-16T22:13:41.940Z,44.25
2023-02-16T22:16:47.089Z,42.00
2023-02-16T22:19:52.085Z,44.80
2023-02-16T22:22:55.396Z,45.00
2023-02-16T22:25:58.815Z,46.00
2023-02-16T22:29:03.594Z,47.00
2023-02-16T22:32:06.978Z,47.00
2023-02-16T22:35:11.770Z,45.60
2023-02-16T22:38:15.009Z,47.00
2023-02-16T22:41:18.320Z,48.00
2023-02-16T22:44:21.831Z,46.00
2023-02-16T22:47:25.031Z,46.25
2023-02-16T22:50:29.921Z,47.00
2023-02-16T22:53:33.749Z,48.00
2023-02-16T22:56:37.084Z,47.40
2023-02-16T22:59:40.405Z,48.40
2023-02-16T23:02:43.770Z,47.25
2023-02-16T23:05:48.581Z,46.00
2023-02-16T23:08:54.195Z,49.00
2023-02-16T23:11:57.590Z,47.00
2023-02-16T23:15:00.914Z,47.00
2023-02-16T23:18:04.705Z,46.00
2023-02-16T23:21:11.474Z,46.00
2023-02-16T23:24:16.788Z,46.00
2023-02-16T23:27:20.031Z,46.20
2023-02-16T23:30:23.436Z,46.00
2023-02-16T23:33:26.866Z,49.50
2023-02-16T23:36:31.758Z,48.60
2023-02-16T23:39:35.071Z,46.00
2023-02-16T23:42:38.502Z,47.40
2023-02-16T23:45:41.958Z,47.00
2023-02-16T23:48:45.291Z,45.00
2023-02-16T23:51:49.873Z,47.50
2023-02-16T23:54:53.202Z,46.50
2023-02-16T23:57:56.524Z,46.25
